Time;durP1;ratioP1;P1;durP2;ratioP2;P2;SDS_P1;SDS_P2;PMS_P1;PMS_P2;Temp;Humidity;BMP_temperature;BMP_pressure;BME280_temperature;BME280_humidity;BME280_pressure;Samples;Min_cycle;Max_cycle;Signal;HPM_P1;HPM_P2
2020/12/01 00:06:07;;;;;;;10.45;6.33;;;;;;;3.82;100.00;101803.87;1803543;79;21126;-81
2020/12/01 00:12:59;;;;;;;13.60;6.60;;;;;;;3.79;100.00;101802.23;1803556;79;21132;-81
2020/12/01 00:19:51;;;;;;;9.13;5.92;;;;;;;3.65;100.00;101797.88;1803508;79;21131;-81
2020/12/01 00:26:23;;;;;;;11.03;6.28;;;;;;;3.65;100.00;101802.19;1774080;79;21573;-81
2020/12/01 00:33:14;;;;;;;8.23;6.58;;;;;;;3.79;100.00;101803.52;1771818;81;21597;-81
2020/12/01 00:40:08;;;;;;;10.88;7.58;;;;;;;3.83;100.00;101808.56;1771818;81;21234;-81
2020/12/01 00:47:00;;;;;;;14.93;10.15;;;;;;;3.86;100.00;101809.33;1771897;81;21689;-82
2020/12/01 00:57:56;;;;;;;15.50;11.97;;;;;;;3.93;100.00;101813.41;1803518;79;21119;-81
2020/12/01 01:04:48;;;;;;;17.80;12.05;;;;;;;3.91;100.00;101813.06;1771799;81;21412;-81
2020/12/01 01:11:40;;;;;;;18.15;12.55;;;;;;;3.78;100.00;101815.12;1771801;81;21163;-81
2020/12/01 01:18:33;;;;;;;16.48;12.37;;;;;;;3.69;100.00;101814.95;1771754;81;21170;-81
2020/12/01 01:25:26;;;;;;;16.10;11.22;;;;;;;3.41;100.00;101813.55;1771803;81;21012;-81
2020/12/01 01:32:17;;;;;;;15.03;10.10;;;;;;;3.55;100.00;101811.91;1771803;81;21143;-81
2020/12/01 01:39:08;;;;;;;16.80;11.83;;;;;;;3.64;100.00;101814.23;1771806;81;21562;-81
2020/12/01 01:46:01;;;;;;;15.03;10.95;;;;;;;3.67;100.00;101805.58;1771784;81;21131;-81
2020/12/01 01:48:37;;;;;;;16.45;11.48;;;;;;;3.39;100.00;101818.75;1771930;81;21535;-82
2020/12/01 01:58:55;;;;;;;13.20;11.43;;;;;;;3.29;100.00;101834.02;1773169;79;21028;-81
2020/12/01 02:05:50;;;;;;;15.43;11.22;;;;;;;3.23;100.00;101834.17;1771716;81;21063;-83
2020/12/01 02:08:19;;;;;;;12.75;10.80;;;;;;;3.23;100.00;101832.43;1768981;81;21150;-87
2020/12/01 02:10:56;;;;;;;15.75;13.08;;;;;;;3.26;100.00;101824.64;1768246;81;21138;-87
2020/12/01 02:13:59;;;;;;;17.23;12.82;;;;;;;3.27;100.00;101827.63;1771433;79;21201;-87
2020/12/01 02:16:27;;;;;;;24.25;17.70;;;;;;;3.29;100.00;101825.83;1771499;79;21063;-87
2020/12/01 02:18:55;;;;;;;25.55;18.37;;;;;;;3.24;100.00;101826.86;1771487;79;21357;-87
2020/12/01 02:21:38;;;;;;;26.60;19.62;;;;;;;3.04;100.00;101828.63;1771461;80;21582;-87
2020/12/01 02:24:18;;;;;;;27.13;18.92;;;;;;;2.87;100.00;101829.02;1771566;81;21554;-88
2020/12/01 02:26:50;;;;;;;23.18;17.82;;;;;;;2.70;100.00;101831.53;1771547;79;21158;-87
2020/12/01 02:29:50;;;;;;;27.75;18.57;;;;;;;2.58;100.00;101844.22;1771570;81;21098;-87
2020/12/01 02:32:23;;;;;;;24.50;17.98;;;;;;;2.46;100.00;101846.63;1824032;76;21434;-87
2020/12/01 02:34:52;;;;;;;27.58;18.48;;;;;;;2.39;100.00;101845.06;1846125;77;21102;-87
2020/12/01 02:37:26;;;;;;;27.25;19.02;;;;;;;2.35;100.00;101852.00;1807959;77;21048;-87
2020/12/01 02:39:54;;;;;;;28.87;18.70;;;;;;;2.32;100.00;101848.64;1796348;79;21138;-87
2020/12/01 02:42:27;;;;;;;25.25;18.40;;;;;;;2.27;100.00;101851.76;1771301;79;21182;-87
2020/12/01 02:44:58;;;;;;;24.77;17.85;;;;;;;2.20;100.00;101851.86;1771248;79;21413;-87
2020/12/01 02:47:31;;;;;;;25.85;17.85;;;;;;;2.20;100.00;101855.72;1769423;79;21154;-87
2020/12/01 02:50:01;;;;;;;24.45;16.55;;;;;;;2.20;100.00;101854.88;1771423;81;21178;-87
2020/12/01 02:52:30;;;;;;;23.85;17.27;;;;;;;2.18;100.00;101865.20;1771227;79;21206;-87
2020/12/01 02:54:58;;;;;;;24.77;15.60;;;;;;;2.18;100.00;101868.20;1779659;79;21123;-87
2020/12/01 02:57:28;;;;;;;21.40;15.48;;;;;;;2.25;100.00;101871.05;1798032;78;21175;-87
2020/12/01 02:59:57;;;;;;;22.05;16.23;;;;;;;2.31;100.00;101867.52;1797838;78;21210;-87
2020/12/01 03:02:28;;;;;;;21.85;15.60;;;;;;;2.37;100.00;101873.81;1797963;79;21182;-87
2020/12/01 03:04:57;;;;;;;21.90;16.27;;;;;;;2.42;100.00;101874.58;1798039;79;21103;-87
2020/12/01 03:07:25;;;;;;;21.68;15.63;;;;;;;2.48;100.00;101868.47;1797855;78;21162;-88
2020/12/01 03:10:00;;;;;;;20.43;14.98;;;;;;;2.51;100.00;101871.82;1797939;78;21185;-88
2020/12/01 03:12:32;;;;;;;18.62;15.38;;;;;;;2.53;100.00;101875.63;1797943;78;21071;-87
2020/12/01 03:15:01;;;;;;;19.57;15.40;;;;;;;2.48;100.00;101874.44;1797899;79;21183;-87
2020/12/01 03:17:34;;;;;;;22.37;16.43;;;;;;;2.42;100.00;101877.15;1798267;78;21183;-87
2020/12/01 03:20:04;;;;;;;23.00;16.57;;;;;;;2.42;100.00;101880.14;1798049;79;21039;-88
2020/12/01 03:22:32;;;;;;;20.43;14.78;;;;;;;2.38;100.00;101885.78;1798292;79;22258;-87
2020/12/01 03:25:03;;;;;;;20.00;15.60;;;;;;;2.29;100.00;101891.97;1798034;79;21102;-87
2020/12/01 03:27:31;;;;;;;23.80;16.12;;;;;;;2.26;100.00;101892.47;1798066;78;21139;-87
2020/12/01 03:30:00;;;;;;;19.15;15.32;;;;;;;2.24;100.00;101885.22;1798040;78;21147;-87
2020/12/01 03:32:29;;;;;;;22.77;17.07;;;;;;;2.23;100.00;101883.53;1772663;78;21206;-87
2020/12/01 03:34:58;;;;;;;21.25;16.85;;;;;;;2.19;100.00;101881.45;1766376;79;21345;-87
2020/12/01 03:37:29;;;;;;;25.92;17.00;;;;;;;2.18;100.00;101884.90;1766466;80;21135;-87
2020/12/01 03:39:58;;;;;;;27.62;18.20;;;;;;;2.11;100.00;101891.04;1766723;80;21063;-87
2020/12/01 03:42:28;;;;;;;22.82;15.98;;;;;;;2.03;100.00;101891.20;1766487;80;21139;-87
2020/12/01 03:44:58;;;;;;;21.27;15.80;;;;;;;2.03;100.00;101893.77;1766773;81;21119;-87
2020/12/01 03:47:55;;;;;;;25.17;16.62;;;;;;;2.04;100.00;101887.76;1766503;80;21364;-88
2020/12/01 03:50:29;;;;;;;24.43;17.25;;;;;;;2.08;100.00;101890.66;1766612;81;21551;-87
2020/12/01 03:52:59;;;;;;;21.60;16.02;;;;;;;2.05;100.00;101880.02;1766486;80;21154;-88
2020/12/01 03:55:29;;;;;;;19.62;15.05;;;;;;;2.07;100.00;101899.70;1778056;80;21158;-87
2020/12/01 03:57:59;;;;;;;23.10;16.40;;;;;;;2.15;100.00;101890.12;1766558;81;21068;-87
2020/12/01 04:00:30;;;;;;;25.43;16.17;;;;;;;2.21;100.00;101894.68;1766523;80;21358;-87
2020/12/01 04:02:59;;;;;;;24.07;17.82;;;;;;;2.18;100.00;101893.47;1766610;81;21557;-87
2020/12/01 04:05:29;;;;;;;24.18;18.30;;;;;;;2.11;100.00;101886.77;1766603;79;21166;-87
2020/12/01 04:07:57;;;;;;;23.70;18.57;;;;;;;2.03;100.00;101902.31;1766647;80;21063;-87
2020/12/01 04:10:27;;;;;;;27.30;19.65;;;;;;;1.98;100.00;101902.84;1766582;80;21103;-87
2020/12/01 04:13:24;;;;;;;25.60;18.55;;;;;;;1.94;100.00;101901.19;1766625;80;21158;-88
2020/12/01 04:15:52;;;;;;;20.80;14.28;;;;;;;1.93;100.00;101895.64;1766647;81;21158;-88
2020/12/01 04:18:22;;;;;;;17.77;13.65;;;;;;;1.89;100.00;101894.02;1766501;80;21119;-87
2020/12/01 04:20:51;;;;;;;19.07;14.10;;;;;;;1.80;100.00;101897.61;1766476;80;21562;-87
2020/12/01 04:23:22;;;;;;;18.62;14.60;;;;;;;1.75;100.00;101899.84;1766845;79;21126;-86
2020/12/01 04:25:50;;;;;;;19.27;14.15;;;;;;;1.72;100.00;101900.75;1766889;80;21275;-86
2020/12/01 04:28:18;;;;;;;22.98;16.07;;;;;;;1.67;100.00;101900.83;1766570;79;21075;-87
2020/12/01 04:30:46;;;;;;;20.40;15.10;;;;;;;1.66;100.00;101900.41;1766619;80;21131;-86
2020/12/01 04:33:14;;;;;;;23.00;16.05;;;;;;;1.61;100.00;101904.77;1766403;80;21131;-86
2020/12/01 04:35:43;;;;;;;18.70;13.62;;;;;;;1.60;100.00;101909.94;1766311;79;21162;-86
2020/12/01 04:38:11;;;;;;;22.37;15.10;;;;;;;1.56;100.00;101916.84;1766404;80;22118;-87
2020/12/01 04:40:40;;;;;;;16.48;13.62;;;;;;;1.56;100.00;101914.27;1763056;81;21076;-86
2020/12/01 04:43:19;;;;;;;23.07;18.60;;;;;;;1.57;100.00;101910.38;1745065;79;21059;-87
2020/12/01 04:45:48;;;;;;;21.82;16.77;;;;;;;1.58;100.00;101904.38;1763363;80;21479;-86
2020/12/01 04:48:46;;;;;;;24.47;16.48;;;;;;;1.60;100.00;101904.80;1768486;79;21162;-86
2020/12/01 04:51:41;;;;;;;21.45;16.48;;;;;;;1.64;100.00;101901.32;1768557;79;21374;-87
2020/12/01 04:54:40;;;;;;;20.95;16.02;;;;;;;1.64;100.00;101902.16;1797869;79;21048;-86
2020/12/01 04:57:20;;;;;;;19.65;14.50;;;;;;;1.65;100.00;101900.42;1806480;78;21127;-86
2020/12/01 05:00:19;;;;;;;21.77;15.40;;;;;;;1.62;100.00;101903.06;1798123;78;21044;-87
2020/12/01 05:03:14;;;;;;;24.67;18.27;;;;;;;1.60;100.00;101900.95;1798055;79;22002;-86
2020/12/01 05:09:09;;;;;;;19.65;14.80;;;;;;;1.64;100.00;101906.45;1889566;75;22746;-86
2020/12/01 05:11:57;;;;;;;21.25;15.13;;;;;;;1.56;100.00;101914.27;1854103;77;21140;-86
2020/12/01 05:14:44;;;;;;;21.55;15.25;;;;;;;1.56;100.00;101910.42;1860385;77;21326;-86
2020/12/01 05:17:40;;;;;;;24.63;17.05;;;;;;;1.58;100.00;101917.67;1859632;77;21112;-85
2020/12/01 05:20:09;;;;;;;26.85;18.52;;;;;;;1.64;100.00;101911.14;1860317;77;21065;-87
2020/12/01 05:22:41;;;;;;;28.27;17.67;;;;;;;1.72;100.00;101917.00;1860397;77;21149;-86
2020/12/01 05:25:18;;;;;;;;;;;;;;;1.81;100.00;101912.58;1858948;77;21072;-86
2020/12/01 05:27:46;;;;;;;28.30;18.37;;;;;;;1.93;100.00;101914.91;1856093;77;21431;-86
2020/12/01 05:30:23;;;;;;;32.78;19.12;;;;;;;1.96;100.00;101911.46;1860237;77;21152;-86
2020/12/01 05:33:00;;;;;;;31.65;18.50;;;;;;;2.01;100.00;101912.22;1860483;77;21050;-86
2020/12/01 05:35:36;;;;;;;33.58;19.65;;;;;;;1.99;100.00;101910.97;1860251;77;21124;-86
2020/12/01 05:38:18;;;;;;;33.05;18.40;;;;;;;2.02;100.00;101913.91;1860386;77;21093;-87
2020/12/01 05:40:54;;;;;;;31.90;19.05;;;;;;;2.05;100.00;101918.55;1855232;77;21319;-85
2020/12/01 05:43:37;;;;;;;28.77;17.27;;;;;;;2.16;100.00;101918.35;1826046;78;21207;-88
2020/12/01 05:46:13;;;;;;;30.05;17.32;;;;;;;2.29;100.00;101921.95;1826444;78;21072;-87
2020/12/01 05:49:04;;;;;;;32.73;19.17;;;;;;;2.33;100.00;101920.58;1820600;78;21259;-87
2020/12/01 05:51:42;;;;;;;;;;;;;;;2.27;100.00;101925.02;1800620;76;21148;-87
2020/12/01 05:54:17;;;;;;;39.35;20.37;;;;;;;2.18;100.00;101926.02;1850731;77;21203;-88
2020/12/01 06:00:56;;;;;;;41.50;21.42;;;;;;;1.97;100.00;101926.84;1827026;78;21139;-82
2020/12/01 06:19:32;;;;;;;43.45;23.50;;;;;;;1.53;100.00;101925.45;1815293;79;21180;-82
2020/12/01 06:31:28;;;;;;;39.27;23.73;;;;;;;1.29;100.00;101927.11;1840558;77;21993;-81
2020/12/01 06:42:25;;;;;;;47.20;28.47;;;;;;;1.30;100.00;101921.11;1848378;77;21505;-82
2020/12/01 06:53:46;;;;;;;68.57;25.30;;;;;;;1.65;100.00;101923.53;1814896;79;21164;-82
2020/12/01 07:04:36;;;;;;;36.08;21.73;;;;;;;2.14;100.00;101928.26;1832173;77;21160;-82
2020/12/01 07:11:32;;;;;;;37.42;21.15;;;;;;;2.38;100.00;101914.52;1813352;79;21592;-83
2020/12/01 07:14:42;;;;;;;33.83;19.62;;;;;;;2.29;100.00;101920.67;1812661;79;21153;-85
2020/12/01 07:21:31;;;;;;;40.70;21.12;;;;;;;2.21;100.00;101934.52;1812824;79;21168;-82
2020/12/01 07:28:40;;;;;;;32.80;21.37;;;;;;;2.35;100.00;101932.98;1812576;79;21141;-81
2020/12/01 07:39:36;;;;;;;38.05;25.65;;;;;;;2.17;100.00;101942.31;1812638;79;21161;-83
2020/12/01 07:46:28;;;;;;;34.05;21.25;;;;;;;1.99;100.00;101940.94;1812530;79;21373;-83
2020/12/01 07:53:22;;;;;;;41.50;25.25;;;;;;;2.03;100.00;101944.70;1812533;79;21482;-82
2020/12/01 07:56:00;;;;;;;;;;;;;;;2.02;100.00;101940.44;1815265;79;21133;-83
2020/12/01 07:58:32;;;;;;;38.15;23.05;;;;;;;2.01;100.00;101943.05;1816329;77;22163;-82
2020/12/01 08:05:23;;;;;;;38.30;25.35;;;;;;;1.98;100.00;101939.23;1812492;79;21125;-82
2020/12/01 08:23:17;;;;;;;37.60;24.87;;;;;;;1.80;100.00;101939.13;1844869;77;21125;-83
2020/12/01 08:42:30;;;;;;;43.42;23.38;;;;;;;1.83;100.00;101919.38;1821101;77;21140;-82
2020/12/01 08:53:26;;;;;;;36.33;22.70;;;;;;;1.87;100.00;101912.45;1815028;79;21153;-83
2020/12/01 09:00:19;;;;;;;37.23;22.07;;;;;;;1.85;100.00;101911.21;1814909;79;21160;-82
2020/12/01 09:07:22;;;;;;;40.17;24.87;;;;;;;1.75;100.00;101898.11;1814927;79;21061;-82
2020/12/01 09:13:43;;;;;;;40.78;24.00;;;;;;;1.69;100.00;101893.09;1811618;78;21578;-83
2020/12/01 09:38:40;;;;;;;41.53;23.40;;;;;;;1.73;100.00;101888.30;1850439;77;21012;-83
2020/12/01 09:45:20;;;;;;;45.70;25.32;;;;;;;1.65;100.00;101876.89;1814946;79;21053;-83
2020/12/01 09:52:17;;;;;;;50.48;27.52;;;;;;;1.68;100.00;101875.53;1848232;77;21141;-83
2020/12/01 10:17:52;;;;;;;34.65;22.02;;;;;;;1.60;100.00;101853.45;1826458;78;21069;-86
2020/12/01 10:36:29;;;;;;;37.00;23.12;;;;;;;1.61;100.00;101852.12;1840824;77;21193;-86
2020/12/01 10:38:59;;;;;;;40.30;23.38;;;;;;;1.58;100.00;101848.34;1837012;76;21013;-86
2020/12/01 10:41:31;;;;;;;35.38;22.65;;;;;;;1.57;100.00;101848.77;1803498;78;21358;-86
2020/12/01 10:44:01;;;;;;;34.80;22.25;;;;;;;1.57;100.00;101849.22;1829339;76;21059;-85
2020/12/01 10:46:30;;;;;;;35.20;22.25;;;;;;;1.59;100.00;101846.19;1840818;77;21176;-86
2020/12/01 10:48:58;;;;;;;35.23;22.05;;;;;;;1.67;100.00;101847.32;1840758;77;21344;-86
2020/12/01 10:51:27;;;;;;;36.73;22.05;;;;;;;1.70;100.00;101846.83;1840601;77;21188;-88
2020/12/01 10:53:55;;;;;;;34.45;20.82;;;;;;;1.79;100.00;101848.39;1840622;77;21145;-86
2020/12/01 10:56:23;;;;;;;34.03;21.73;;;;;;;1.85;100.00;101840.98;1818556;76;21244;-86
2020/12/01 10:58:51;;;;;;;31.65;20.45;;;;;;;1.89;100.00;101840.91;1816293;78;21164;-86
2020/12/01 11:01:19;;;;;;;41.35;23.85;;;;;;;1.92;100.00;101831.45;1832112;77;21354;-86
2020/12/01 11:03:47;;;;;;;37.38;23.90;;;;;;;1.95;100.00;101827.55;1840474;77;21450;-86
2020/12/01 11:06:15;;;;;;;37.40;22.10;;;;;;;2.00;100.00;101827.02;1840769;77;21105;-86
2020/12/01 11:08:43;;;;;;;35.60;20.75;;;;;;;2.04;100.00;101826.09;1840202;78;21180;-86
2020/12/01 11:11:18;;;;;;;35.92;22.65;;;;;;;2.08;100.00;101822.56;1840652;77;21164;-86
2020/12/01 11:13:46;;;;;;;39.92;24.55;;;;;;;2.10;100.00;101821.24;1828974;78;22329;-85
2020/12/01 11:16:15;;;;;;;40.60;24.72;;;;;;;2.04;100.00;101818.38;1807765;78;21228;-85
2020/12/01 11:18:43;;;;;;;38.65;24.95;;;;;;;1.99;100.00;101815.91;1807677;79;21161;-86
2020/12/01 11:21:12;;;;;;;36.17;23.75;;;;;;;1.99;99.98;101821.46;1825818;78;21151;-87
2020/12/01 11:23:44;;;;;;;38.28;22.60;;;;;;;1.97;100.00;101812.93;1828991;77;21134;-86
2020/12/01 11:26:29;;;;;;;38.10;23.95;;;;;;;2.01;99.87;101812.01;1846201;75;24601;-86
2020/12/01 11:28:57;;;;;;;40.08;24.87;;;;;;;1.94;99.65;101812.56;1807776;79;21416;-85
2020/12/01 11:31:26;;;;;;;38.13;23.83;;;;;;;1.96;100.00;101804.84;1807738;79;21352;-86
2020/12/01 11:34:07;;;;;;;31.90;20.80;;;;;;;1.98;100.00;101809.48;1816401;76;21064;-87
2020/12/01 11:36:38;;;;;;;34.58;20.25;;;;;;;1.99;99.90;101811.19;1834528;77;21141;-86
2020/12/01 11:39:11;;;;;;;33.88;21.87;;;;;;;1.98;99.70;101811.64;1815045;76;21069;-86
2020/12/01 11:41:39;;;;;;;36.28;22.13;;;;;;;2.00;99.75;101818.02;1832286;77;21133;-86
2020/12/01 11:44:11;;;;;;;36.13;22.73;;;;;;;2.00;99.26;101816.73;1827394;76;21351;-88
2020/12/01 11:46:40;;;;;;;35.90;21.80;;;;;;;1.97;98.71;101824.07;1822654;78;21192;-88
2020/12/01 11:49:09;;;;;;;33.23;21.25;;;;;;;1.96;98.70;101818.52;1808062;78;21188;-84
2020/12/01 11:51:40;;;;;;;33.80;21.55;;;;;;;1.94;98.26;101820.27;1813177;76;21162;-84
2020/12/01 11:54:11;;;;;;;35.52;21.95;;;;;;;1.89;98.17;101822.92;1818150;78;21105;-83
2020/12/01 11:56:40;;;;;;;32.50;22.05;;;;;;;1.90;98.31;101821.22;1828896;76;21178;-83
2020/12/01 11:59:10;;;;;;;34.20;21.97;;;;;;;1.90;98.41;101822.50;1820161;78;21125;-83
2020/12/01 12:01:39;;;;;;;36.03;22.90;;;;;;;1.93;98.80;101819.02;1818902;76;21152;-83
2020/12/01 12:04:07;;;;;;;34.50;22.22;;;;;;;1.95;98.74;101824.53;1840050;77;21356;-83
2020/12/01 12:06:36;;;;;;;31.45;20.70;;;;;;;1.95;98.69;101824.98;1833794;78;21101;-83
2020/12/01 12:09:10;;;;;;;33.58;22.25;;;;;;;1.99;98.76;101829.17;1841217;78;22267;-83
2020/12/01 12:11:39;;;;;;;35.52;21.95;;;;;;;1.99;98.43;101826.60;1841091;77;21125;-83
2020/12/01 12:14:08;;;;;;;31.52;20.80;;;;;;;2.00;98.91;101827.02;1841146;78;21146;-83
2020/12/01 12:16:36;;;;;;;33.15;20.27;;;;;;;2.04;98.91;101832.52;1841053;78;21113;-84
2020/12/01 12:19:04;;;;;;;31.05;19.42;;;;;;;2.05;98.54;101829.04;1841131;77;21084;-84
2020/12/01 12:21:33;;;;;;;32.95;22.22;;;;;;;2.03;98.09;101832.94;1840998;77;21164;-84
2020/12/01 12:24:29;;;;;;;30.27;20.27;;;;;;;2.02;97.82;101829.13;1841034;78;21145;-85
2020/12/01 12:27:01;;;;;;;33.35;21.52;;;;;;;2.02;98.06;101823.98;1841132;77;21148;-86
2020/12/01 12:29:36;;;;;;;30.23;19.52;;;;;;;2.01;97.89;101823.12;1841157;78;20983;-84
2020/12/01 12:32:05;;;;;;;29.95;18.07;;;;;;;2.00;97.71;101827.84;1841220;78;21137;-85
2020/12/01 12:34:37;;;;;;;30.72;20.43;;;;;;;2.02;98.00;101832.52;1841071;77;21438;-85
2020/12/01 12:37:05;;;;;;;31.57;20.52;;;;;;;2.04;97.73;101826.09;1840748;77;21197;-84
2020/12/01 12:39:33;;;;;;;29.70;20.05;;;;;;;2.03;97.40;101826.97;1840597;78;21399;-83
2020/12/01 12:42:03;;;;;;;31.02;20.77;;;;;;;2.03;97.31;101826.52;1840593;78;21030;-83
2020/12/01 12:44:38;;;;;;;28.23;18.60;;;;;;;2.03;97.62;101830.37;1840513;78;21184;-83
2020/12/01 12:47:10;;;;;;;37.60;22.32;;;;;;;2.09;97.75;101829.83;1840579;78;20892;-83
2020/12/01 12:49:38;;;;;;;48.45;29.45;;;;;;;2.09;97.29;101832.39;1840551;78;21165;-84
2020/12/01 12:52:34;;;;;;;38.25;24.30;;;;;;;2.05;96.89;101835.47;1840634;78;21153;-84
2020/12/01 12:55:09;;;;;;;40.75;25.23;;;;;;;1.99;96.03;101839.45;1840700;78;21134;-83
2020/12/01 12:57:38;;;;;;;42.10;25.37;;;;;;;1.82;95.47;101840.62;1840382;78;21026;-83
2020/12/01 13:00:07;;;;;;;41.28;24.05;;;;;;;1.70;95.71;101844.70;1840609;77;22254;-83
2020/12/01 13:02:35;;;;;;;43.20;24.20;;;;;;;1.63;96.18;101851.66;1840436;77;21066;-84
2020/12/01 13:05:04;;;;;;;52.50;30.57;;;;;;;1.57;96.41;101851.33;1840254;77;21113;-84
2020/12/01 13:07:34;;;;;;;42.25;25.08;;;;;;;1.53;96.60;101845.86;1839587;77;21149;-84
2020/12/01 13:10:04;;;;;;;41.90;23.67;;;;;;;1.52;96.86;101854.88;1840309;77;21111;-84
2020/12/01 13:12:34;;;;;;;43.58;25.75;;;;;;;1.49;96.98;101854.47;1840316;77;21350;-84
2020/12/01 13:15:04;;;;;;;39.13;23.35;;;;;;;1.47;97.03;101856.23;1840331;77;21058;-84
2020/12/01 13:17:33;;;;;;;46.35;25.70;;;;;;;1.44;97.12;101856.28;1840351;77;21062;-84
2020/12/01 13:20:03;;;;;;;67.75;34.67;;;;;;;1.41;97.24;101857.60;1840264;77;21148;-84
2020/12/01 13:22:32;;;;;;;56.23;32.00;;;;;;;1.39;97.37;101865.79;1840578;77;21521;-84
2020/12/01 13:25:00;;;;;;;48.90;27.25;;;;;;;1.38;97.32;101871.79;1839559;76;21418;-84
2020/12/01 13:27:28;;;;;;;48.17;26.37;;;;;;;1.31;97.05;101874.05;1832023;77;21050;-85
2020/12/01 13:29:56;;;;;;;43.33;25.23;;;;;;;1.25;97.10;101883.52;1832056;77;21228;-84
2020/12/01 13:32:24;;;;;;;36.93;23.95;;;;;;;1.20;96.84;101885.77;1832035;77;21148;-84
2020/12/01 13:34:53;;;;;;;39.78;24.70;;;;;;;1.14;96.79;101876.86;1832080;77;21101;-84
2020/12/01 13:37:21;;;;;;;43.65;25.57;;;;;;;1.10;96.90;101888.89;1815481;77;22254;-85
2020/12/01 13:39:48;;;;;;;40.35;24.85;;;;;;;1.07;96.36;101891.52;1799256;78;21144;-85
2020/12/01 13:42:17;;;;;;;41.00;24.00;;;;;;;1.02;96.33;101896.72;1799238;79;21086;-85
2020/12/01 13:44:45;;;;;;;39.60;24.37;;;;;;;0.97;96.28;101894.63;1799100;79;21180;-85
2020/12/01 13:47:13;;;;;;;39.35;23.40;;;;;;;0.94;96.41;101894.70;1799377;78;21474;-82
2020/12/01 13:49:42;;;;;;;34.27;21.65;;;;;;;0.90;96.29;101896.46;1799306;79;22238;-82
2020/12/01 13:52:10;;;;;;;35.38;22.00;;;;;;;0.87;95.86;101901.63;1799209;79;21081;-81
2020/12/01 13:54:38;;;;;;;36.08;22.35;;;;;;;0.82;96.13;101898.28;1799287;78;21575;-81
2020/12/01 13:57:06;;;;;;;36.23;22.73;;;;;;;0.81;96.35;101898.28;1799380;79;21168;-82
2020/12/01 13:59:34;;;;;;;32.15;19.90;;;;;;;0.80;96.29;101900.02;1799308;78;21120;-83
2020/12/01 14:02:02;;;;;;;34.10;20.20;;;;;;;0.80;96.26;101898.73;1799305;78;21464;-83
2020/12/01 14:04:32;;;;;;;35.15;23.67;;;;;;;0.78;96.27;101903.89;1799219;79;21108;-83
2020/12/01 14:07:04;;;;;;;40.35;24.40;;;;;;;0.77;96.13;101905.17;1799398;79;21137;-83
2020/12/01 14:09:32;;;;;;;35.95;22.22;;;;;;;0.76;96.10;101902.22;1799294;79;21545;-83
2020/12/01 14:12:02;;;;;;;38.75;24.52;;;;;;;0.73;95.98;101912.50;1799299;78;21516;-83
2020/12/01 14:14:30;;;;;;;40.30;23.60;;;;;;;0.69;95.73;101907.85;1799277;78;21343;-81
2020/12/01 14:17:01;;;;;;;47.05;28.10;;;;;;;0.66;95.32;101913.45;1799214;78;21160;-82
2020/12/01 14:19:29;;;;;;;103.02;52.35;;;;;;;0.51;95.17;101915.77;1799329;78;21085;-82
2020/12/01 14:21:59;;;;;;;87.35;41.05;;;;;;;0.51;95.17;101915.77;1799147;78;21183;-82
2020/12/01 14:24:27;;;;;;;90.22;45.78;;;;;;;0.45;94.73;101914.98;1799101;78;21587;-82
2020/12/01 14:26:56;;;;;;;58.23;34.55;;;;;;;0.42;94.40;101920.58;1805022;78;22243;-82
2020/12/01 14:29:24;;;;;;;47.95;30.85;;;;;;;0.37;94.04;101926.17;1807049;78;21078;-82
2020/12/01 14:31:52;;;;;;;39.05;25.95;;;;;;;0.31;94.04;101924.55;1807216;79;21144;-82
2020/12/01 14:34:20;;;;;;;49.05;30.05;;;;;;;0.28;94.09;101921.56;1807181;78;21950;-82
2020/12/01 14:36:52;;;;;;;73.83;38.23;;;;;;;0.22;93.79;101921.64;1807258;79;21157;-82
2020/12/01 14:39:22;;;;;;;61.40;34.18;;;;;;;0.19;94.21;101929.38;1807125;78;21350;-82
2020/12/01 14:46:34;;;;;;;45.70;26.33;;;;;;;0.17;94.01;101935.36;1807660;79;21003;-87
2020/12/01 14:53:28;;;;;;;43.15;24.23;;;;;;;0.09;94.28;101943.14;1838791;78;21116;-82
2020/12/01 14:56:11;;;;;;;44.53;25.50;;;;;;;0.03;93.62;101939.36;1756359;80;22507;-82
2020/12/01 14:59:14;;;;;;;44.80;25.57;;;;;;;-0.04;93.56;101939.40;1773076;80;21144;-82
2020/12/01 15:02:12;;;;;;;36.53;23.07;;;;;;;-0.08;93.61;101938.19;1779106;80;21128;-82
2020/12/01 15:05:17;;;;;;;31.20;20.85;;;;;;;-0.10;93.53;101938.63;1779135;80;21128;-82
2020/12/01 15:08:40;;;;;;;36.48;22.40;;;;;;;-0.12;93.36;101941.18;1779042;80;21563;-83
2020/12/01 15:11:28;;;;;;;42.00;22.15;;;;;;;-0.13;93.14;101944.63;1756587;80;21375;-83
2020/12/01 15:13:57;;;;;;;36.42;21.15;;;;;;;-0.12;93.27;101943.74;1778321;80;21539;-82
2020/12/01 15:16:30;;;;;;;33.65;19.73;;;;;;;-0.12;93.06;101945.47;1779250;80;21089;-82
2020/12/01 15:19:00;;;;;;;33.63;18.70;;;;;;;-0.10;93.45;101938.63;1775333;80;21163;-82
2020/12/01 15:21:43;;;;;;;35.63;21.90;;;;;;;-0.08;93.27;101947.98;1777577;79;21163;-83
2020/12/01 15:24:21;;;;;;;33.13;20.23;;;;;;;-0.05;93.43;101946.69;1770946;80;21378;-82
2020/12/01 15:26:49;;;;;;;32.58;19.52;;;;;;;-0.03;92.90;101948.78;1760462;80;21597;-82
2020/12/01 15:29:17;;;;;;;31.17;19.32;;;;;;;-0.01;93.18;101952.19;1760649;80;21193;-83
2020/12/01 15:31:45;;;;;;;31.07;19.40;;;;;;;0.02;92.89;101945.34;1758944;80;21210;-83
2020/12/01 15:34:17;;;;;;;37.00;22.85;;;;;;;0.02;92.87;101947.91;1759019;81;21537;-84
2020/12/01 15:36:46;;;;;;;37.67;22.58;;;;;;;0.02;92.45;101950.47;1777427;79;21373;-84
2020/12/01 15:39:15;;;;;;;40.63;22.52;;;;;;;0.02;92.61;101948.73;1790238;80;21165;-82
2020/12/01 15:41:43;;;;;;;50.63;26.50;;;;;;;0.03;92.46;101951.72;1784721;79;21166;-86
2020/12/01 15:44:12;;;;;;;53.10;26.52;;;;;;;0.00;91.91;101955.61;1770009;80;21601;-86
2020/12/01 15:46:40;;;;;;;70.50;26.30;;;;;;;-0.04;91.97;101955.21;1790243;78;21109;-86
2020/12/01 15:49:10;;;;;;;46.48;22.75;;;;;;;-0.05;92.13;101954.38;1790420;80;22340;-85
2020/12/01 15:51:48;;;;;;;37.45;22.30;;;;;;;0.00;92.92;101954.33;1790300;80;21585;-85
2020/12/01 15:54:48;;;;;;;39.73;20.80;;;;;;;0.03;92.45;101951.72;1767551;80;21130;-86
2020/12/01 15:57:42;;;;;;;29.23;18.50;;;;;;;0.02;92.70;101954.31;1763505;78;21497;-85
2020/12/01 16:00:45;;;;;;;32.75;19.62;;;;;;;0.04;93.48;101962.84;1764983;80;21430;-84
2020/12/01 16:03:44;;;;;;;28.55;17.95;;;;;;;0.09;93.52;101965.75;1759141;81;21434;-84
2020/12/01 16:06:40;;;;;;;35.83;20.48;;;;;;;0.11;93.29;101969.59;1758840;80;21173;-84
2020/12/01 16:09:34;;;;;;;31.02;19.77;;;;;;;0.07;92.83;101966.63;1758916;80;21593;-84
2020/12/01 16:12:23;;;;;;;34.90;20.12;;;;;;;0.04;91.99;101967.95;1736808;80;21154;-84
2020/12/01 16:15:30;;;;;;;37.05;19.77;;;;;;;-0.03;91.71;101966.70;1760841;78;21146;-83
2020/12/01 16:18:04;;;;;;;36.53;20.15;;;;;;;-0.03;92.43;101969.72;1759135;80;21367;-84
2020/12/01 16:20:44;;;;;;;39.27;19.85;;;;;;;0.05;92.89;101972.19;1756107;81;21118;-81
2020/12/01 16:23:12;;;;;;;33.23;20.62;;;;;;;0.08;91.79;101972.17;1762771;78;21208;-82
2020/12/01 16:25:40;;;;;;;36.93;20.08;;;;;;;0.05;91.64;101970.49;1762733;78;21165;-82
2020/12/01 16:28:17;;;;;;;35.92;20.12;;;;;;;0.06;91.68;101966.20;1767505;79;21155;-84
2020/12/01 16:30:45;;;;;;;56.10;21.90;;;;;;;0.05;91.38;101974.75;1753872;81;22270;-84
2020/12/01 16:33:16;;;;;;;41.85;20.70;;;;;;;0.06;91.67;101971.33;1760378;80;21123;-83
2020/12/01 16:35:48;;;;;;;44.53;20.52;;;;;;;0.07;91.89;101970.06;1763365;81;21484;-83
2020/12/01 16:38:46;;;;;;;34.27;20.50;;;;;;;0.09;92.48;101972.59;1765667;79;21203;-83
2020/12/01 16:41:20;;;;;;;40.20;21.65;;;;;;;0.10;91.62;101976.86;1756475;79;21482;-84
2020/12/01 16:44:15;;;;;;;34.92;19.25;;;;;;;0.17;93.39;101972.09;1780764;79;21130;-84
2020/12/01 16:46:54;;;;;;;42.98;20.35;;;;;;;0.26;92.87;101974.56;1772312;79;21174;-84
2020/12/01 16:49:45;;;;;;;42.23;19.98;;;;;;;0.29;92.68;101977.08;1758995;80;21110;-83
2020/12/01 16:52:38;;;;;;;36.80;21.23;;;;;;;0.27;92.57;101978.83;1748372;80;21166;-84